Time;durP1;ratioP1;P1;durP2;ratioP2;P2;SDS_P1;SDS_P2;PMS_P1;PMS_P2;Temp;Humidity;BMP_temperature;BMP_pressure;BME280_temperature;BME280_humidity;BME280_pressure;Samples;Min_cycle;Max_cycle;Signal;HPM_P1;HPM_P2
2023/12/17 00:01:04;;;;;;;13.30;7.78;;;14.30;99.90;;;;;;5008690;28;20049;-80
2023/12/17 00:03:29;;;;;;;17.73;8.45;;;14.10;99.90;;;;;;5010010;28;20057;-76
2023/12/17 00:05:56;;;;;;;11.45;8.30;;;14.30;99.90;;;;;;5026633;28;20114;-78
2023/12/17 00:08:22;;;;;;;12.50;8.20;;;14.10;99.90;;;;;;5014984;28;20393;-76
2023/12/17 00:10:51;;;;;;;15.02;8.18;;;14.90;99.90;;;;;;5012861;28;20516;-76
2023/12/17 00:13:18;;;;;;;14.70;8.70;;;14.70;99.90;;;;;;5024780;28;20044;-77
2023/12/17 00:15:44;;;;;;;11.68;8.00;;;15.00;99.90;;;;;;5027827;28;20103;-77
2023/12/17 00:18:11;;;;;;;12.00;7.68;;;14.80;99.90;;;;;;5007995;28;20052;-76
2023/12/17 00:20:37;;;;;;;11.23;7.53;;;15.00;99.90;;;;;;5024364;28;20069;-77
2023/12/17 00:23:04;;;;;;;10.80;7.55;;;14.20;99.90;;;;;;5032366;28;20060;-78
2023/12/17 00:25:30;;;;;;;12.27;7.20;;;14.20;99.90;;;;;;5002750;28;20173;-80
2023/12/17 00:27:56;;;;;;;14.30;7.53;;;14.40;99.90;;;;;;5005587;28;20394;-77
2023/12/17 00:30:22;;;;;;;11.77;7.70;;;14.90;99.90;;;;;;5015163;28;20052;-77
2023/12/17 00:32:48;;;;;;;12.45;7.90;;;15.10;99.90;;;;;;5014735;28;20029;-76
2023/12/17 00:35:14;;;;;;;9.95;7.20;;;14.50;99.90;;;;;;5030388;28;20051;-79
2023/12/17 00:37:40;;;;;;;11.13;8.15;;;15.10;99.90;;;;;;5009354;28;20124;-75
2023/12/17 00:40:06;;;;;;;9.38;7.07;;;15.10;99.90;;;;;;5009950;28;20049;-77
2023/12/17 00:42:32;;;;;;;9.55;7.15;;;14.40;99.90;;;;;;5022202;28;20068;-76
2023/12/17 00:44:58;;;;;;;11.98;7.18;;;14.20;99.90;;;;;;5026414;28;20091;-78
2023/12/17 00:47:24;;;;;;;10.27;7.05;;;15.00;99.90;;;;;;5010906;28;20045;-75
2023/12/17 00:49:50;;;;;;;10.93;7.50;;;14.80;99.90;;;;;;5026605;28;20428;-76
2023/12/17 00:52:16;;;;;;;10.90;7.20;;;14.20;99.90;;;;;;5029469;28;20534;-75
2023/12/17 00:54:41;;;;;;;9.90;6.70;;;14.40;99.90;;;;;;5011447;28;20071;-76
2023/12/17 00:57:07;;;;;;;12.73;6.88;;;14.90;99.90;;;;;;5012838;28;20501;-76
2023/12/17 00:59:32;;;;;;;11.93;6.85;;;15.00;99.90;;;;;;5011251;28;20064;-73
2023/12/17 01:01:58;;;;;;;10.13;7.45;;;14.10;99.90;;;;;;5011409;28;20070;-72
2023/12/17 01:04:24;;;;;;;13.20;7.50;;;14.90;99.90;;;;;;5028935;28;20072;-77
2023/12/17 01:06:49;;;;;;;9.57;7.43;;;15.10;99.90;;;;;;5027623;28;20056;-78
2023/12/17 01:09:15;;;;;;;11.63;6.95;;;14.90;99.90;;;;;;5025333;28;20044;-75
2023/12/17 01:11:42;;;;;;;9.55;6.97;;;14.40;99.90;;;;;;5006393;28;20119;-73
2023/12/17 01:14:08;;;;;;;8.82;6.40;;;15.00;99.90;;;;;;4996015;28;20048;-78
2023/12/17 01:16:33;;;;;;;12.50;7.25;;;14.30;99.90;;;;;;5007567;28;20464;-75
2023/12/17 01:18:59;;;;;;;7.03;6.15;;;15.00;99.90;;;;;;5020124;28;20128;-75
2023/12/17 01:21:25;;;;;;;11.27;6.82;;;15.10;99.90;;;;;;5012132;28;20044;-74
2023/12/17 01:23:50;;;;;;;11.05;7.07;;;14.80;99.90;;;;;;5025141;28;20504;-76
2023/12/17 01:26:23;;;;;;;12.05;6.70;;;14.60;99.90;;;;;;5010191;28;20033;-77
2023/12/17 01:28:49;;;;;;;8.30;6.15;;;15.00;99.90;;;;;;5029923;28;20033;-75
2023/12/17 01:31:15;;;;;;;10.25;7.07;;;14.40;99.90;;;;;;5016124;28;20064;-75
2023/12/17 01:33:41;;;;;;;10.00;6.28;;;14.90;99.90;;;;;;5013378;28;20090;-75
2023/12/17 01:36:07;;;;;;;11.40;7.45;;;14.30;99.90;;;;;;5011994;28;20041;-75
2023/12/17 01:38:33;;;;;;;9.43;6.85;;;14.70;99.90;;;;;;5030331;28;20052;-76
2023/12/17 01:40:59;;;;;;;8.95;6.07;;;14.90;99.90;;;;;;5021952;28;20052;-74
2023/12/17 01:43:24;;;;;;;10.82;6.50;;;14.70;99.90;;;;;;5033905;28;20091;-77
2023/12/17 01:45:51;;;;;;;13.38;6.75;;;14.90;99.90;;;;;;5023265;28;20033;-77
2023/12/17 01:48:17;;;;;;;9.70;7.57;;;14.30;99.90;;;;;;5022210;28;20045;-76
2023/12/17 01:50:43;;;;;;;9.77;7.07;;;14.40;99.90;;;;;;5032699;28;20045;-77
2023/12/17 01:53:09;;;;;;;8.80;6.43;;;15.00;99.90;;;;;;5012530;28;20037;-76
2023/12/17 01:55:35;;;;;;;9.40;6.68;;;14.40;99.90;;;;;;5009853;28;20083;-78
2023/12/17 01:58:02;;;;;;;9.98;6.72;;;14.30;99.90;;;;;;5011404;28;20042;-75
2023/12/17 02:00:29;;;;;;;9.10;6.10;;;14.40;99.90;;;;;;4991361;28;20041;-76
2023/12/17 02:02:54;;;;;;;11.55;6.75;;;14.30;99.90;;;;;;5006470;28;20052;-76
2023/12/17 02:05:20;;;;;;;10.38;7.10;;;14.40;99.90;;;;;;5001442;28;20773;-78
2023/12/17 02:07:47;;;;;;;9.10;7.00;;;14.30;99.90;;;;;;4995284;28;20044;-75
2023/12/17 02:10:12;;;;;;;10.50;6.68;;;14.30;99.90;;;;;;4983630;28;20046;-75
2023/12/17 02:12:39;;;;;;;9.95;6.35;;;14.90;99.90;;;;;;5009278;28;20036;-74
2023/12/17 02:15:06;;;;;;;12.63;7.40;;;15.10;99.90;;;;;;4993713;28;20088;-75
2023/12/17 02:17:32;;;;;;;10.75;6.70;;;14.30;99.90;;;;;;4998110;28;20045;-78
2023/12/17 02:19:58;;;;;;;14.48;7.20;;;14.30;99.90;;;;;;4988031;28;20136;-76
2023/12/17 02:22:25;;;;;;;9.43;6.18;;;14.30;99.90;;;;;;5009499;28;20046;-79
2023/12/17 02:24:52;;;;;;;9.63;7.03;;;15.10;99.90;;;;;;4986528;28;20038;-75
2023/12/17 02:27:23;;;;;;;9.48;6.20;;;14.40;99.90;;;;;;4973184;28;20045;-78
2023/12/17 02:29:53;;;;;;;11.80;7.07;;;14.20;99.90;;;;;;5003599;28;20110;-73
2023/12/17 02:32:23;;;;;;;12.10;6.70;;;14.60;99.90;;;;;;4992076;28;20037;-74
2023/12/17 02:34:50;;;;;;;13.13;7.32;;;14.90;99.90;;;;;;5007832;28;20049;-75
2023/12/17 02:37:16;;;;;;;8.82;6.38;;;14.20;99.90;;;;;;4992845;28;20073;-77
2023/12/17 02:39:42;;;;;;;10.52;6.43;;;14.60;99.90;;;;;;5010713;28;20502;-76
2023/12/17 02:42:08;;;;;;;7.43;6.10;;;14.50;99.90;;;;;;5008935;28;20049;-75
2023/12/17 02:44:33;;;;;;;7.63;5.85;;;14.20;99.90;;;;;;5005192;28;20046;-75
2023/12/17 02:47:00;;;;;;;9.32;6.25;;;15.00;99.90;;;;;;5004189;28;20037;-76
2023/12/17 02:49:26;;;;;;;12.68;6.55;;;14.80;99.90;;;;;;5009840;28;20052;-75
2023/12/17 02:51:51;;;;;;;12.25;6.50;;;14.50;99.90;;;;;;5008455;28;20045;-77
2023/12/17 02:54:21;;;;;;;11.48;6.60;;;14.40;99.90;;;;;;4992008;28;20120;-75
2023/12/17 02:56:47;;;;;;;8.00;6.20;;;14.30;99.90;;;;;;5003108;28;20053;-76
2023/12/17 02:59:13;;;;;;;11.45;6.15;;;14.90;99.90;;;;;;5029186;28;20235;-79
2023/12/17 03:01:43;;;;;;;10.38;6.35;;;14.20;99.90;;;;;;5028665;28;20046;-73
2023/12/17 03:04:10;;;;;;;10.80;6.18;;;14.30;99.90;;;;;;5023239;28;20485;-76
2023/12/17 03:06:37;;;;;;;10.57;5.78;;;14.20;99.90;;;;;;5010913;28;20044;-77
2023/12/17 03:09:03;;;;;;;8.35;6.35;;;14.20;99.90;;;;;;5013747;28;20507;-75
2023/12/17 03:11:29;;;;;;;10.00;5.88;;;14.80;99.90;;;;;;5007706;28;20121;-75
2023/12/17 03:13:54;;;;;;;13.63;6.10;;;14.70;99.90;;;;;;5013738;28;20121;-76
2023/12/17 03:16:20;;;;;;;11.93;6.10;;;14.70;99.90;;;;;;5009161;28;20029;-78
2023/12/17 03:18:46;;;;;;;8.10;6.22;;;14.80;99.90;;;;;;5009719;28;20509;-74
2023/12/17 03:21:12;;;;;;;9.02;5.75;;;14.90;99.90;;;;;;5029332;28;20053;-76
2023/12/17 03:23:38;;;;;;;9.27;5.90;;;14.20;99.90;;;;;;5027650;28;20037;-76
2023/12/17 03:26:04;;;;;;;12.15;6.60;;;14.90;99.90;;;;;;5023021;28;20448;-77
2023/12/17 03:28:29;;;;;;;12.05;5.93;;;14.70;99.90;;;;;;5029053;28;20523;-80
2023/12/17 03:30:55;;;;;;;9.18;6.13;;;14.80;99.90;;;;;;4997825;28;20065;-77
2023/12/17 03:33:21;;;;;;;8.68;5.72;;;14.20;99.90;;;;;;5028834;28;20035;-78
2023/12/17 03:35:47;;;;;;;6.95;5.30;;;14.60;99.90;;;;;;5010117;28;20040;-75
2023/12/17 03:38:13;;;;;;;8.60;6.53;;;14.90;99.90;;;;;;5028023;28;20636;-73
2023/12/17 03:40:40;;;;;;;11.20;5.85;;;14.90;99.90;;;;;;5032481;28;20100;-77
2023/12/17 03:43:06;;;;;;;9.05;6.03;;;14.50;99.90;;;;;;5023861;28;20034;-78
2023/12/17 03:45:33;;;;;;;9.98;6.40;;;14.40;99.90;;;;;;5024519;28;20045;-79
2023/12/17 03:48:00;;;;;;;9.73;6.40;;;14.80;99.90;;;;;;5026858;28;20480;-77
2023/12/17 03:50:26;;;;;;;10.43;6.53;;;14.50;99.90;;;;;;5029230;28;20061;-77
2023/12/17 03:52:52;;;;;;;8.73;6.25;;;14.80;99.90;;;;;;5013944;28;20468;-74
2023/12/17 03:55:17;;;;;;;8.95;5.57;;;14.70;99.90;;;;;;5024634;28;20041;-75
2023/12/17 03:57:46;;;;;;;11.55;7.18;;;14.50;99.90;;;;;;5029840;28;20052;-77
2023/12/17 04:00:13;;;;;;;13.73;7.03;;;14.20;99.90;;;;;;5010820;28;20049;-73
2023/12/17 04:02:38;;;;;;;11.80;7.65;;;14.40;99.90;;;;;;5012493;28;20070;-75
2023/12/17 04:05:05;;;;;;;12.77;7.97;;;14.70;99.90;;;;;;4995354;28;20610;-73
2023/12/17 04:07:30;;;;;;;15.48;8.75;;;14.80;99.90;;;;;;5022869;28;20164;-75
2023/12/17 04:09:57;;;;;;;13.70;7.93;;;14.20;99.90;;;;;;5013730;28;20151;-75
2023/12/17 04:12:23;;;;;;;12.82;9.15;;;14.80;99.90;;;;;;5004856;28;20209;-73
2023/12/17 04:14:48;;;;;;;14.85;9.43;;;14.20;99.90;;;;;;5006808;28;20041;-73
2023/12/17 04:17:14;;;;;;;12.98;8.38;;;14.20;99.90;;;;;;5014284;28;20086;-75
2023/12/17 04:19:40;;;;;;;13.15;8.13;;;14.30;99.90;;;;;;5019324;28;20513;-74
2023/12/17 04:22:05;;;;;;;14.60;9.52;;;14.20;99.90;;;;;;5020487;28;20486;-76
2023/12/17 04:24:31;;;;;;;12.60;8.52;;;14.70;99.90;;;;;;5018090;28;20104;-76
2023/12/17 04:26:57;;;;;;;12.02;9.10;;;14.30;99.90;;;;;;5014046;28;20120;-75
2023/12/17 04:29:23;;;;;;;16.40;9.77;;;14.80;99.90;;;;;;5026975;28;20086;-77
2023/12/17 04:31:48;;;;;;;13.52;9.20;;;14.70;99.90;;;;;;5013229;28;20041;-76
2023/12/17 04:34:14;;;;;;;13.50;8.98;;;14.40;99.90;;;;;;5011947;28;20044;-79
2023/12/17 04:36:41;;;;;;;14.35;9.65;;;14.20;99.90;;;;;;5022632;28;20052;-75
2023/12/17 04:39:09;;;;;;;17.80;9.38;;;14.20;99.90;;;;;;5013829;28;20508;-77
2023/12/17 04:41:36;;;;;;;13.43;9.18;;;14.80;99.90;;;;;;4985189;28;20369;-77
2023/12/17 04:44:02;;;;;;;16.05;9.55;;;14.10;99.90;;;;;;4987533;28;20073;-73
2023/12/17 04:46:28;;;;;;;14.63;9.27;;;14.30;99.90;;;;;;4991609;28;20523;-77
2023/12/17 04:48:55;;;;;;;12.90;8.10;;;14.70;99.90;;;;;;5027887;28;20044;-77
2023/12/17 04:51:22;;;;;;;12.10;8.85;;;14.20;99.90;;;;;;5012173;28;20037;-80
2023/12/17 04:53:48;;;;;;;15.50;8.85;;;14.80;99.90;;;;;;5025215;28;20041;-76
2023/12/17 04:56:14;;;;;;;14.07;8.88;;;14.80;99.90;;;;;;5026086;28;20065;-75
2023/12/17 04:58:40;;;;;;;12.98;8.43;;;14.40;99.90;;;;;;4997500;28;20047;-73
2023/12/17 05:01:05;;;;;;;13.95;9.27;;;14.20;99.90;;;;;;5026769;28;20115;-75
2023/12/17 05:03:31;;;;;;;14.70;9.35;;;14.20;99.90;;;;;;4998747;28;20046;-74
2023/12/17 05:05:57;;;;;;;18.02;9.52;;;14.80;99.90;;;;;;5009784;28;20037;-78
2023/12/17 05:08:23;;;;;;;15.52;9.23;;;14.20;99.90;;;;;;5017159;28;20044;-74
2023/12/17 05:10:49;;;;;;;12.93;9.10;;;14.70;99.90;;;;;;5013727;28;20047;-75
2023/12/17 05:13:15;;;;;;;13.30;8.77;;;14.20;99.90;;;;;;5011339;28;20388;-76
2023/12/17 05:15:41;;;;;;;13.63;8.77;;;14.00;99.90;;;;;;5033163;28;20041;-75
2023/12/17 05:18:07;;;;;;;12.32;9.15;;;14.60;99.90;;;;;;5026925;28;20041;-77
2023/12/17 05:20:32;;;;;;;11.68;8.35;;;14.00;99.90;;;;;;5031782;28;20469;-79
2023/12/17 05:22:58;;;;;;;16.23;8.60;;;14.60;99.90;;;;;;5016481;28;20086;-78
2023/12/17 05:25:24;;;;;;;15.02;8.27;;;14.60;99.90;;;;;;5021321;28;20124;-78
2023/12/17 05:27:49;;;;;;;15.85;9.40;;;14.00;99.90;;;;;;5008742;28;20034;-77
2023/12/17 05:30:15;;;;;;;13.73;9.00;;;14.00;99.90;;;;;;5000498;28;20043;-74
2023/12/17 05:32:41;;;;;;;12.15;8.38;;;14.50;99.90;;;;;;5007177;28;20068;-76
2023/12/17 05:35:07;;;;;;;10.48;8.48;;;14.50;99.90;;;;;;5032741;28;20044;-76
2023/12/17 05:37:33;;;;;;;16.00;9.15;;;14.00;99.90;;;;;;5030871;28;20124;-77
2023/12/17 05:39:59;;;;;;;14.98;9.38;;;14.40;99.90;;;;;;5017259;28;20187;-78
2023/12/17 05:42:24;;;;;;;14.63;9.82;;;14.00;99.90;;;;;;5016969;28;20045;-76
2023/12/17 05:44:50;;;;;;;15.55;9.25;;;14.40;99.90;;;;;;5013343;28;20052;-77
2023/12/17 05:47:16;;;;;;;13.63;10.52;;;13.90;99.90;;;;;;5005747;28;20068;-76
2023/12/17 05:49:42;;;;;;;11.43;8.77;;;13.90;99.90;;;;;;5027245;28;20037;-79
2023/12/17 05:52:08;;;;;;;15.60;10.02;;;14.40;99.90;;;;;;5030144;28;20038;-79
2023/12/17 05:54:34;;;;;;;13.93;8.95;;;14.00;99.90;;;;;;5017880;28;20033;-78
2023/12/17 05:57:00;;;;;;;19.05;10.52;;;13.90;99.90;;;;;;4969401;28;20406;-77
2023/12/17 05:59:26;;;;;;;15.23;9.82;;;14.30;99.90;;;;;;5028126;28;20048;-77
2023/12/17 06:01:52;;;;;;;17.33;10.80;;;14.10;99.90;;;;;;4990332;28;20055;-76
2023/12/17 06:04:18;;;;;;;16.08;10.77;;;13.90;99.90;;;;;;5020651;28;20092;-73
2023/12/17 06:06:44;;;;;;;16.90;11.35;;;13.90;99.90;;;;;;4992547;28;20042;-77
2023/12/17 06:09:10;;;;;;;14.43;11.43;;;14.20;99.90;;;;;;5027782;28;20436;-78
2023/12/17 06:11:36;;;;;;;15.38;12.02;;;14.00;99.90;;;;;;5012931;28;20037;-81
2023/12/17 06:14:03;;;;;;;15.73;12.82;;;14.40;99.90;;;;;;5031407;28;20083;-76
2023/12/17 06:16:29;;;;;;;16.63;12.15;;;14.30;99.90;;;;;;5026623;28;20052;-76
2023/12/17 06:18:55;;;;;;;19.67;12.80;;;14.20;99.90;;;;;;5006455;28;20034;-75
2023/12/17 06:21:24;;;;;;;18.05;13.13;;;13.90;99.90;;;;;;5029399;28;20047;-76
2023/12/17 06:24:02;;;;;;;16.70;12.95;;;13.90;99.90;;;;;;5012111;28;20048;-76
2023/12/17 06:26:28;;;;;;;20.10;13.38;;;13.90;99.90;;;;;;4998368;28;20052;-74
2023/12/17 06:28:54;;;;;;;17.92;13.43;;;13.90;99.90;;;;;;5028815;28;20041;-75
2023/12/17 06:31:20;;;;;;;19.10;13.68;;;14.40;99.90;;;;;;5028399;28;20040;-76
2023/12/17 06:33:46;;;;;;;15.20;11.18;;;14.20;99.90;;;;;;5012667;28;20543;-74
2023/12/17 06:36:12;;;;;;;16.25;11.20;;;14.20;99.90;;;;;;5027337;28;20103;-77
2023/12/17 06:38:41;;;;;;;17.65;9.80;;;13.90;99.90;;;;;;5033226;28;20047;-74
2023/12/17 06:41:10;;;;;;;16.35;10.20;;;14.30;99.90;;;;;;5025137;28;20058;-78
2023/12/17 06:43:36;;;;;;;12.88;10.57;;;14.30;99.90;;;;;;5022512;28;20374;-75
2023/12/17 06:46:04;;;;;;;18.60;10.90;;;13.90;99.90;;;;;;5004595;28;20099;-74
2023/12/17 06:48:31;;;;;;;16.15;10.23;;;14.20;99.90;;;;;;5009178;28;20051;-74
2023/12/17 06:50:57;;;;;;;16.10;10.48;;;14.10;99.90;;;;;;4996233;28;20086;-76
2023/12/17 06:53:22;;;;;;;14.40;9.73;;;13.90;99.90;;;;;;5015783;28;20033;-75
2023/12/17 06:55:48;;;;;;;13.13;9.30;;;13.80;99.90;;;;;;5025817;28;20142;-75
2023/12/17 06:58:14;;;;;;;12.27;9.25;;;13.90;99.90;;;;;;4989366;28;20042;-76
2023/12/17 07:00:40;;;;;;;10.00;8.77;;;14.30;99.90;;;;;;4991286;28;20390;-76
2023/12/17 07:03:06;;;;;;;18.38;8.77;;;14.30;99.90;;;;;;5006515;28;20041;-75
2023/12/17 07:05:32;;;;;;;14.82;8.50;;;13.90;99.90;;;;;;4986194;28;20047;-79
2023/12/17 07:07:57;;;;;;;12.20;8.40;;;14.10;99.90;;;;;;5004798;28;20041;-78
2023/12/17 07:10:23;;;;;;;13.05;8.63;;;14.00;99.90;;;;;;5002107;28;20038;-80
2023/12/17 07:12:49;;;;;;;12.77;7.80;;;13.80;99.90;;;;;;4993690;28;20048;-79
2023/12/17 07:15:15;;;;;;;13.98;7.55;;;14.10;99.90;;;;;;4976508;28;20049;-77
2023/12/17 07:17:40;;;;;;;12.40;7.55;;;13.80;99.90;;;;;;4993047;28;20048;-78
2023/12/17 07:20:08;;;;;;;11.70;7.80;;;13.90;99.90;;;;;;4987193;28;20436;-78
2023/12/17 07:22:34;;;;;;;15.07;8.55;;;13.90;99.90;;;;;;5007472;28;20042;-76
2023/12/17 07:25:00;;;;;;;12.10;7.35;;;14.00;99.90;;;;;;4992787;28;20061;-80
2023/12/17 07:27:26;;;;;;;16.73;8.82;;;14.10;99.90;;;;;;5007267;28;20116;-75
2023/12/17 07:29:52;;;;;;;13.50;8.27;;;14.00;99.90;;;;;;5005889;28;20099;-76
2023/12/17 07:32:18;;;;;;;14.60;8.05;;;13.90;99.90;;;;;;4970545;28;20081;-77
2023/12/17 07:34:44;;;;;;;14.70;8.02;;;14.30;99.90;;;;;;5008708;28;20054;-79
2023/12/17 07:37:09;;;;;;;15.07;8.27;;;14.20;99.90;;;;;;4993477;28;20044;-78
2023/12/17 07:39:35;;;;;;;14.68;8.70;;;14.30;99.90;;;;;;4990298;28;20656;-74
2023/12/17 07:42:00;;;;;;;15.95;8.93;;;14.10;99.90;;;;;;5008680;28;20405;-79
2023/12/17 07:44:27;;;;;;;13.38;8.07;;;13.90;99.90;;;;;;4993741;28;20030;-76
2023/12/17 07:46:53;;;;;;;17.23;9.43;;;14.00;99.90;;;;;;4992882;28;20057;-75
2023/12/17 07:49:19;;;;;;;12.27;8.13;;;13.80;99.90;;;;;;4993647;28;20044;-77
2023/12/17 07:51:45;;;;;;;14.52;8.07;;;13.80;99.90;;;;;;4993256;28;20038;-79
2023/12/17 07:54:10;;;;;;;15.13;8.57;;;14.30;99.90;;;;;;5004815;28;20436;-79
2023/12/17 07:56:36;;;;;;;15.38;8.63;;;13.90;99.90;;;;;;5016925;28;20049;-76
2023/12/17 07:59:02;;;;;;;14.13;8.98;;;13.90;99.90;;;;;;4995946;28;20369;-74
2023/12/17 08:01:28;;;;;;;12.20;8.18;;;14.20;99.90;;;;;;5028987;28;20036;-76
2023/12/17 08:03:54;;;;;;;15.43;8.23;;;14.20;99.90;;;;;;5004391;28;20049;-76
2023/12/17 08:06:20;;;;;;;15.18;8.75;;;14.20;99.90;;;;;;5011699;28;20397;-78
2023/12/17 08:08:46;;;;;;;12.88;9.23;;;14.10;99.90;;;;;;4995752;28;20043;-76
2023/12/17 08:11:12;;;;;;;14.45;9.18;;;14.20;99.90;;;;;;4981774;28;20389;-79
2023/12/17 08:13:37;;;;;;;18.25;10.07;;;13.90;99.90;;;;;;4997061;28;20029;-75
2023/12/17 08:16:03;;;;;;;10.68;9.05;;;13.80;99.90;;;;;;4997376;28;20377;-76
2023/12/17 08:18:29;;;;;;;12.57;8.52;;;13.90;99.90;;;;;;4997767;28;20042;-77
2023/12/17 08:20:55;;;;;;;18.38;10.30;;;13.90;99.90;;;;;;4995897;28;20095;-74
2023/12/17 08:23:21;;;;;;;14.50;9.60;;;13.90;99.90;;;;;;5015191;28;20463;-80
2023/12/17 08:25:46;;;;;;;15.43;9.82;;;14.10;99.90;;;;;;5012393;28;20125;-74
2023/12/17 08:28:12;;;;;;;17.25;9.75;;;13.90;99.90;;;;;;5013100;28;20056;-77
2023/12/17 08:30:39;;;;;;;18.33;10.05;;;14.20;99.90;;;;;;4980263;28;20092;-76
2023/12/17 08:33:05;;;;;;;19.25;11.27;;;13.90;99.90;;;;;;4996345;28;20064;-75
2023/12/17 08:35:31;;;;;;;15.40;10.02;;;14.10;99.90;;;;;;4979599;28;20091;-74
2023/12/17 08:38:03;;;;;;;14.70;10.43;;;13.80;99.90;;;;;;4995121;28;20041;-79
2023/12/17 08:40:31;;;;;;;17.67;11.32;;;13.80;99.90;;;;;;5014455;28;20037;-77
2023/12/17 08:42:57;;;;;;;21.42;11.68;;;13.90;99.90;;;;;;5012406;28;20042;-75
2023/12/17 08:45:23;;;;;;;17.25;11.98;;;14.20;99.90;;;;;;5012699;28;20481;-76
2023/12/17 08:47:48;;;;;;;17.73;12.43;;;14.20;99.90;;;;;;5003212;28;20032;-76
2023/12/17 08:50:14;;;;;;;17.15;11.73;;;13.90;99.90;;;;;;5027438;28;20060;-78
2023/12/17 08:52:40;;;;;;;16.38;12.13;;;14.20;99.90;;;;;;5010037;28;20117;-76
2023/12/17 08:55:06;;;;;;;16.02;12.00;;;14.20;99.90;;;;;;4992825;28;20042;-76
2023/12/17 08:57:32;;;;;;;18.58;12.30;;;14.00;99.90;;;;;;5022687;28;20063;-78
2023/12/17 08:59:58;;;;;;;18.30;11.55;;;14.30;99.90;;;;;;5021865;28;20052;-77
2023/12/17 09:02:24;;;;;;;16.90;12.20;;;14.30;99.90;;;;;;5011722;28;20083;-76
2023/12/17 09:04:51;;;;;;;19.33;12.63;;;13.90;99.90;;;;;;5008990;28;20477;-76
2023/12/17 09:07:17;;;;;;;16.67;12.88;;;14.40;99.90;;;;;;4997914;28;20129;-75
2023/12/17 09:09:43;;;;;;;16.27;12.35;;;14.30;99.90;;;;;;4996579;28;20077;-74
2023/12/17 09:12:09;;;;;;;16.92;12.55;;;14.40;99.90;;;;;;5019302;28;20065;-77
2023/12/17 09:14:35;;;;;;;20.50;13.32;;;14.20;99.90;;;;;;4994427;28;20034;-76
2023/12/17 09:17:02;;;;;;;18.77;13.43;;;14.30;99.90;;;;;;4992982;28;20128;-75
2023/12/17 09:19:27;;;;;;;23.10;14.00;;;14.00;99.90;;;;;;4997280;28;20052;-78
2023/12/17 09:21:53;;;;;;;23.85;15.82;;;14.40;99.90;;;;;;4999054;28;20561;-80
2023/12/17 09:24:20;;;;;;;21.25;15.13;;;14.40;99.90;;;;;;4962596;28;20049;-78
2023/12/17 09:26:45;;;;;;;24.40;16.05;;;14.00;99.90;;;;;;5012234;28;20052;-77
2023/12/17 09:29:11;;;;;;;25.15;16.95;;;14.00;99.90;;;;;;4980923;28;20037;-78
2023/12/17 09:31:37;;;;;;;26.35;17.70;;;14.00;99.90;;;;;;5006565;28;20041;-79
2023/12/17 09:34:02;;;;;;;21.80;16.00;;;14.00;99.90;;;;;;4977441;28;20479;-81
2023/12/17 09:36:28;;;;;;;26.83;17.10;;;14.50;99.90;;;;;;4995188;28;20045;-79
2023/12/17 09:38:54;;;;;;;24.55;17.73;;;14.50;99.90;;;;;;4977312;28;20069;-81
2023/12/17 09:41:19;;;;;;;23.88;17.98;;;14.20;99.90;;;;;;4999002;28;20087;-79
2023/12/17 09:43:46;;;;;;;29.65;17.58;;;14.50;99.90;;;;;;4990724;28;20053;-79
2023/12/17 09:46:12;;;;;;;28.23;17.02;;;14.40;99.90;;;;;;5015709;28;20431;-77
2023/12/17 09:48:38;;;;;;;30.92;18.35;;;14.60;99.90;;;;;;4999017;28;20112;-77
2023/12/17 09:51:04;;;;;;;28.75;17.80;;;14.60;99.90;;;;;;4980784;28;20633;-76
2023/12/17 09:53:31;;;;;;;23.92;16.95;;;14.40;99.90;;;;;;5001191;28;20045;-79
2023/12/17 09:55:57;;;;;;;27.52;18.15;;;14.20;99.90;;;;;;5000069;28;20414;-79
2023/12/17 09:58:26;;;;;;;30.77;17.73;;;14.50;99.90;;;;;;5011618;28;20045;-80
2023/12/17 10:00:52;;;;;;;26.65;17.02;;;14.30;99.90;;;;;;5011353;28;20052;-79
2023/12/17 10:03:19;;;;;;;27.13;17.27;;;14.40;99.90;;;;;;5015916;28;20510;-76
2023/12/17 10:05:52;;;;;;;26.00;15.57;;;14.60;99.90;;;;;;5008619;28;20041;-77
2023/12/17 10:08:18;;;;;;;21.92;15.50;;;14.60;99.90;;;;;;5024520;28;20421;-78
2023/12/17 10:10:44;;;;;;;26.10;15.75;;;14.70;99.90;;;;;;5029900;28;20052;-80
2023/12/17 10:13:11;;;;;;;29.55;15.48;;;14.20;99.90;;;;;;5022515;28;20037;-81
2023/12/17 10:15:37;;;;;;;24.75;15.52;;;14.60;99.90;;;;;;4993073;28;20111;-79
2023/12/17 10:18:04;;;;;;;23.23;14.35;;;14.70;99.90;;;;;;5014373;28;20120;-79
2023/12/17 10:20:33;;;;;;;25.05;14.93;;;14.60;99.90;;;;;;5012853;28;20536;-78
2023/12/17 10:23:01;;;;;;;19.35;13.30;;;14.60;99.90;;;;;;5014951;28;20037;-82
2023/12/17 10:25:27;;;;;;;21.73;13.98;;;14.60;99.90;;;;;;5001495;28;20188;-83
2023/12/17 10:27:58;;;;;;;21.13;14.13;;;14.50;99.90;;;;;;5016329;28;20037;-77
2023/12/17 10:30:32;;;;;;;21.52;13.13;;;14.60;99.90;;;;;;4999362;28;20095;-82
2023/12/17 10:32:59;;;;;;;20.05;13.77;;;14.20;99.90;;;;;;5015298;28;20355;-81
2023/12/17 10:35:26;;;;;;;22.58;15.13;;;14.20;99.90;;;;;;5012186;28;20045;-81
2023/12/17 10:37:53;;;;;;;21.45;14.50;;;14.60;99.90;;;;;;5001410;28;20045;-77
2023/12/17 10:40:21;;;;;;;21.23;15.55;;;14.30;99.90;;;;;;5009539;28;20052;-75
2023/12/17 10:42:49;;;;;;;25.02;15.55;;;14.20;99.90;;;;;;5030452;28;20071;-81
2023/12/17 10:45:20;;;;;;;24.35;16.45;;;14.50;99.90;;;;;;5026276;28;20049;-80
2023/12/17 10:47:56;;;;;;;30.52;19.48;;;14.50;99.90;;;;;;5011576;28;20041;-78
2023/12/17 10:50:26;;;;;;;28.15;17.60;;;14.40;99.90;;;;;;5011022;28;20037;-80
2023/12/17 10:52:52;;;;;;;33.15;20.23;;;14.30;99.90;;;;;;5010137;28;20037;-78
2023/12/17 10:55:19;;;;;;;34.03;22.55;;;14.30;99.90;;;;;;5013227;28;20052;-81
2023/12/17 10:57:57;;;;;;;32.17;21.02;;;14.20;99.90;;;;;;5025683;28;20075;-79
2023/12/17 11:00:26;;;;;;;30.08;22.48;;;14.50;99.90;;;;;;5028636;28;20041;-79
2023/12/17 11:02:58;;;;;;;32.30;23.48;;;14.60;99.90;;;;;;5029259;28;20057;-78
2023/12/17 11:05:23;;;;;;;31.08;22.77;;;14.20;99.90;;;;;;5033892;28;20049;-82
2023/12/17 11:07:49;;;;;;;42.03;26.30;;;14.60;99.90;;;;;;5026917;28;20036;-79
2023/12/17 11:10:17;;;;;;;31.92;23.75;;;14.30;99.90;;;;;;5030710;28;20028;-79
2023/12/17 11:12:45;;;;;;;30.65;23.45;;;14.30;99.90;;;;;;5021028;28;20128;-77
2023/12/17 11:15:19;;;;;;;37.42;24.50;;;14.60;99.90;;;;;;5030446;28;20086;-79
2023/12/17 11:17:46;;;;;;;34.88;22.38;;;14.50;99.90;;;;;;5029875;28;20045;-77
2023/12/17 11:20:12;;;;;;;31.25;23.80;;;14.40;99.90;;;;;;5024105;28;20045;-76
2023/12/17 11:22:38;;;;;;;31.13;23.55;;;14.20;99.90;;;;;;5021453;28;20068;-78
2023/12/17 11:25:08;;;;;;;33.42;23.40;;;14.70;99.90;;;;;;5011815;28;20051;-78
2023/12/17 11:27:35;;;;;;;33.58;24.27;;;14.30;99.90;;;;;;5026901;28;20477;-78
2023/12/17 11:30:01;;;;;;;31.55;24.42;;;14.60;99.90;;;;;;5030297;28;20485;-79
2023/12/17 11:32:27;;;;;;;31.70;24.83;;;14.60;99.90;;;;;;5012682;28;20075;-78
2023/12/17 11:34:54;;;;;;;31.10;24.17;;;14.70;99.90;;;;;;5016167;28;20048;-75
2023/12/17 11:37:21;;;;;;;35.72;23.98;;;14.80;99.90;;;;;;5029638;28;20041;-80
2023/12/17 11:39:48;;;;;;;29.80;21.48;;;14.70;99.90;;;;;;5020472;28;20425;-80
2023/12/17 11:42:16;;;;;;;29.70;23.17;;;14.70;99.90;;;;;;4994076;28;20125;-79
2023/12/17 11:44:46;;;;;;;30.88;22.15;;;14.90;99.90;;;;;;4996715;28;20056;-76
2023/12/17 11:47:12;;;;;;;24.73;18.35;;;14.90;99.90;;;;;;5006488;28;20156;-78
2023/12/17 11:49:38;;;;;;;24.85;18.08;;;14.70;99.90;;;;;;5016079;28;20049;-84
2023/12/17 11:52:15;;;;;;;23.70;17.85;;;14.80;99.90;;;;;;4995552;28;20041;-78
2023/12/17 11:54:42;;;;;;;29.05;18.58;;;15.30;99.90;;;;;;4996827;28;20583;-81
2023/12/17 11:57:34;;;;;;;23.33;17.67;;;14.80;99.90;;;;;;4996802;28;20053;-78
2023/12/17 12:00:00;;;;;;;21.73;17.00;;;15.10;99.90;;;;;;4996058;28;20042;-80
2023/12/17 12:02:28;;;;;;;24.20;18.45;;;15.10;99.90;;;;;;4997379;28;20044;-77
2023/12/17 12:04:55;;;;;;;22.88;17.48;;;14.80;99.90;;;;;;4978307;28;20077;-82
2023/12/17 12:07:20;;;;;;;25.10;16.52;;;14.70;99.90;;;;;;5010707;28;20405;-78
2023/12/17 12:09:50;;;;;;;24.27;17.08;;;15.00;99.90;;;;;;4989469;28;20033;-83
2023/12/17 12:12:16;;;;;;;20.23;15.90;;;15.00;99.90;;;;;;5005077;28;20059;-80
2023/12/17 12:14:45;;;;;;;21.38;15.57;;;15.00;99.90;;;;;;5024499;28;20048;-76
2023/12/17 12:17:39;;;;;;;24.17;16.38;;;15.00;99.90;;;;;;5022341;28;20088;-80
2023/12/17 12:20:09;;;;;;;18.35;15.50;;;14.70;99.90;;;;;;5013252;28;20077;-76
2023/12/17 12:22:35;;;;;;;21.38;14.18;;;14.80;99.90;;;;;;4994329;28;20045;-79
2023/12/17 12:25:02;;;;;;;21.85;15.25;;;14.70;99.90;;;;;;4997981;28;20037;-78
2023/12/17 12:27:28;;;;;;;20.58;15.15;;;14.90;99.90;;;;;;5011803;28;20120;-80
2023/12/17 12:29:59;;;;;;;21.05;15.35;;;14.90;99.90;;;;;;5009306;28;20132;-83